Time;durP1;ratioP1;P1;durP2;ratioP2;P2;SDS_P1;SDS_P2;PMS_P1;PMS_P2;Temp;Humidity;BMP_temperature;BMP_pressure;BME280_temperature;BME280_humidity;BME280_pressure;Samples;Min_cycle;Max_cycle;Signal;HPM_P1;HPM_P2
2022/01/12 00:01:14;;;;;;;19.80;10.35;;;2.90;90.80;;;;;;5021253;28;20120;-68
2022/01/12 00:03:42;;;;;;;21.30;10.38;;;2.90;90.90;;;;;;5022596;28;20048;-68
2022/01/12 00:06:07;;;;;;;19.73;9.75;;;2.80;91.40;;;;;;5018224;28;22316;-68
2022/01/12 00:08:33;;;;;;;23.45;10.27;;;2.90;90.90;;;;;;5015638;28;20042;-68
2022/01/12 00:11:00;;;;;;;23.75;10.73;;;2.80;91.10;;;;;;5024089;28;20022;-68
2022/01/12 00:13:26;;;;;;;17.50;9.40;;;2.80;91.10;;;;;;5021760;28;20022;-69
2022/01/12 00:15:52;;;;;;;21.15;9.57;;;2.80;91.00;;;;;;5022376;28;20037;-69
2022/01/12 00:18:18;;;;;;;18.90;10.80;;;2.80;90.90;;;;;;5022969;28;20472;-69
2022/01/12 00:20:44;;;;;;;20.35;10.48;;;2.90;90.80;;;;;;5024820;28;20029;-69
2022/01/12 00:23:10;;;;;;;17.73;10.43;;;2.80;91.40;;;;;;5022321;28;20520;-69
2022/01/12 00:34:30;;;;;;;20.02;11.10;;;2.80;91.20;;;;;;5029405;28;20087;-69
2022/01/12 00:36:55;;;;;;;18.23;10.30;;;2.80;91.30;;;;;;5023194;28;20018;-69
2022/01/12 00:39:21;;;;;;;16.40;10.10;;;2.80;91.40;;;;;;5025338;28;20029;-69
2022/01/12 00:41:47;;;;;;;17.42;9.63;;;2.80;91.20;;;;;;5020587;28;20030;-69
2022/01/12 00:44:22;;;;;;;17.77;10.93;;;2.90;91.10;;;;;;5022174;28;20024;-69
2022/01/12 00:46:49;;;;;;;19.08;11.02;;;2.90;91.10;;;;;;5028675;28;20029;-69
2022/01/12 00:49:14;;;;;;;19.25;11.10;;;2.90;91.20;;;;;;5027316;28;20072;-69
2022/01/12 00:51:40;;;;;;;19.33;10.38;;;2.90;91.20;;;;;;5013253;28;20610;-69
2022/01/12 00:54:08;;;;;;;23.83;11.23;;;2.90;91.30;;;;;;5025493;28;20108;-69
2022/01/12 00:56:34;;;;;;;17.95;11.13;;;2.80;91.50;;;;;;5019891;28;20033;-69
2022/01/12 00:59:00;;;;;;;18.00;10.90;;;2.80;92.30;;;;;;5026317;28;20030;-69
2022/01/12 01:01:26;;;;;;;23.15;11.52;;;2.80;92.60;;;;;;5020073;28;20056;-69
2022/01/12 01:03:52;;;;;;;24.25;11.95;;;2.70;92.80;;;;;;5025199;28;20037;-69
2022/01/12 01:06:19;;;;;;;23.65;11.48;;;2.70;93.10;;;;;;5027128;28;20025;-69
2022/01/12 01:08:45;;;;;;;20.42;12.32;;;2.60;93.30;;;;;;5028585;28;20483;-69
2022/01/12 01:11:11;;;;;;;21.55;13.07;;;2.60;93.50;;;;;;5023336;28;20029;-69
2022/01/12 01:13:57;;;;;;;22.73;13.00;;;2.60;93.80;;;;;;5027349;28;20060;-69
2022/01/12 01:16:30;;;;;;;23.50;13.60;;;2.60;94.00;;;;;;5023832;28;20029;-69
2022/01/12 01:27:08;;;;;;;23.08;14.50;;;2.60;94.60;;;;;;5064331;28;20031;-69
2022/01/12 01:29:34;;;;;;;23.73;14.98;;;2.50;94.70;;;;;;5061193;28;20111;-69
2022/01/12 01:31:59;;;;;;;26.05;14.30;;;2.60;94.80;;;;;;5069556;28;20455;-69
2022/01/12 01:34:27;;;;;;;26.50;14.48;;;2.50;94.90;;;;;;5072852;28;20032;-69
2022/01/12 01:36:55;;;;;;;26.20;14.93;;;2.60;95.10;;;;;;5071398;28;20057;-69
2022/01/12 01:39:23;;;;;;;29.75;16.30;;;2.50;95.10;;;;;;5054667;28;20021;-69
2022/01/12 01:41:57;;;;;;;26.77;16.08;;;2.50;95.10;;;;;;5055265;28;20021;-69
2022/01/12 01:55:04;;;;;;;34.55;18.70;;;2.50;95.60;;;;;;5065788;28;20118;-69
2022/01/12 01:57:31;;;;;;;33.35;18.90;;;2.50;95.70;;;;;;5069603;28;20025;-69
2022/01/12 01:59:57;;;;;;;42.03;19.55;;;2.40;95.80;;;;;;5067874;28;20019;-69
2022/01/12 02:02:22;;;;;;;32.65;18.33;;;2.50;95.90;;;;;;5066816;28;20044;-69
2022/01/12 02:04:48;;;;;;;30.77;18.58;;;2.40;96.00;;;;;;5072137;28;20545;-69
2022/01/12 02:07:14;;;;;;;35.45;20.10;;;2.40;96.10;;;;;;5071034;28;20059;-69
2022/01/12 02:09:40;;;;;;;33.92;21.83;;;2.40;96.20;;;;;;5071685;28;20031;-69
2022/01/12 02:12:06;;;;;;;37.47;21.65;;;2.40;96.20;;;;;;5060476;28;20025;-69
2022/01/12 02:14:31;;;;;;;34.17;21.38;;;2.40;96.20;;;;;;5062379;28;20025;-69
2022/01/12 02:17:03;;;;;;;44.20;22.17;;;2.40;96.20;;;;;;5067204;28;20121;-69
2022/01/12 02:36:08;;;;;;;37.13;23.42;;;2.50;96.30;;;;;;5069098;28;20089;-69
2022/01/12 02:41:20;;;;;;;36.20;22.60;;;2.40;96.30;;;;;;5038681;28;20033;-69
2022/01/12 02:50:39;;;;;;;39.83;24.17;;;2.50;96.30;;;;;;5057429;28;20033;-69
2022/01/12 02:55:04;;;;;;;45.45;23.23;;;2.50;96.40;;;;;;5069790;28;20035;-69
2022/01/12 02:57:30;;;;;;;41.28;25.90;;;2.50;96.40;;;;;;5071328;28;20116;-69
2022/01/12 03:00:08;;;;;;;43.25;24.50;;;2.50;96.40;;;;;;5067639;28;20099;-69
2022/01/12 03:02:38;;;;;;;49.53;25.45;;;2.50;96.40;;;;;;5067060;28;20106;-70
2022/01/12 03:07:43;;;;;;;50.00;25.95;;;2.50;96.40;;;;;;5062806;28;20495;-69
2022/01/12 03:10:11;;;;;;;46.53;28.08;;;2.50;96.50;;;;;;5064534;28;20025;-69
2022/01/12 03:12:42;;;;;;;47.28;28.10;;;2.50;96.50;;;;;;5070454;28;20032;-69
2022/01/12 03:15:08;;;;;;;59.03;30.08;;;2.50;96.60;;;;;;5068289;28;20029;-69
2022/01/12 03:17:34;;;;;;;53.15;29.45;;;2.50;96.60;;;;;;5066180;28;20036;-69
2022/01/12 03:20:00;;;;;;;55.10;28.45;;;2.50;96.70;;;;;;5061482;28;20103;-69
2022/01/12 03:22:25;;;;;;;60.65;29.48;;;2.50;96.80;;;;;;5058125;28;20489;-69
2022/01/12 03:24:51;;;;;;;62.67;30.52;;;2.50;96.80;;;;;;5071107;28;20388;-69
2022/01/12 03:27:17;;;;;;;57.28;30.85;;;2.50;96.90;;;;;;5065181;28;20073;-69
2022/01/12 03:29:44;;;;;;;73.50;32.60;;;2.40;96.90;;;;;;5071008;28;20035;-69
2022/01/12 03:32:12;;;;;;;59.72;30.80;;;2.50;97.00;;;;;;5070806;28;20020;-69
2022/01/12 03:34:41;;;;;;;60.17;30.77;;;2.40;97.00;;;;;;5051296;28;20033;-69
2022/01/12 03:39:51;;;;;;;63.83;31.55;;;2.40;97.20;;;;;;5062992;28;20363;-69
2022/01/12 03:42:19;;;;;;;76.18;33.95;;;2.40;97.30;;;;;;5069085;28;20028;-69
2022/01/12 03:44:44;;;;;;;66.15;33.70;;;2.40;97.30;;;;;;5067918;28;20020;-69
2022/01/12 03:47:10;;;;;;;74.35;34.70;;;2.40;97.40;;;;;;5070069;28;20624;-69
2022/01/12 03:49:35;;;;;;;74.45;33.88;;;2.40;97.50;;;;;;5069912;28;20037;-69
2022/01/12 03:52:01;;;;;;;69.50;32.63;;;2.40;97.50;;;;;;5068197;28;20035;-69
2022/01/12 03:54:26;;;;;;;71.70;33.92;;;2.40;97.60;;;;;;5063542;28;20449;-69
2022/01/12 03:56:52;;;;;;;78.40;34.33;;;2.40;97.60;;;;;;5057648;28;20433;-69
2022/01/12 03:59:17;;;;;;;72.68;32.90;;;2.40;97.60;;;;;;5060398;28;20083;-69
2022/01/12 04:01:43;;;;;;;78.30;34.50;;;2.40;97.60;;;;;;5063712;28;20048;-69
2022/01/12 04:04:16;;;;;;;75.82;33.78;;;2.40;97.70;;;;;;5057832;28;20376;-69
2022/01/12 04:09:26;;;;;;;67.03;34.22;;;2.40;97.80;;;;;;5067049;28;20023;-69
2022/01/12 04:11:51;;;;;;;78.60;36.58;;;2.40;97.80;;;;;;5069181;28;20029;-69
2022/01/12 04:14:17;;;;;;;82.20;37.72;;;2.40;97.90;;;;;;5067932;28;20031;-69
2022/01/12 04:16:42;;;;;;;84.13;35.90;;;2.40;97.90;;;;;;5069845;28;20024;-69
2022/01/12 04:19:08;;;;;;;77.47;36.50;;;2.40;97.90;;;;;;5063061;28;20051;-69
2022/01/12 04:21:41;;;;;;;72.35;34.92;;;2.40;97.90;;;;;;5063943;28;20500;-69
2022/01/12 04:24:06;;;;;;;81.28;36.40;;;2.40;98.00;;;;;;5069510;28;20109;-69
2022/01/12 04:26:32;;;;;;;70.45;35.28;;;2.40;98.00;;;;;;5069130;28;20085;-69
2022/01/12 04:28:58;;;;;;;75.43;35.78;;;2.40;98.00;;;;;;5065242;28;20028;-69
2022/01/12 04:31:23;;;;;;;88.00;38.53;;;2.40;98.00;;;;;;5066395;28;20027;-69
2022/01/12 04:33:49;;;;;;;89.68;39.00;;;2.40;98.10;;;;;;5066296;28;20083;-69
2022/01/12 04:36:15;;;;;;;84.70;38.13;;;2.40;98.10;;;;;;5060442;28;20021;-69
2022/01/12 04:38:43;;;;;;;87.28;37.47;;;2.40;98.10;;;;;;5069892;28;20036;-69
2022/01/12 04:41:10;;;;;;;80.18;38.47;;;2.40;98.10;;;;;;5061395;28;20040;-69
2022/01/12 04:43:39;;;;;;;89.03;36.13;;;2.40;98.10;;;;;;5068581;28;20040;-69
2022/01/12 04:48:36;;;;;;;90.18;38.75;;;2.40;98.20;;;;;;5055138;28;20115;-69
2022/01/12 04:51:02;;;;;;;88.63;37.00;;;2.40;98.10;;;;;;5059607;28;20413;-69
2022/01/12 04:53:29;;;;;;;91.57;38.88;;;2.40;98.20;;;;;;5058222;28;20108;-69
2022/01/12 04:55:54;;;;;;;92.43;37.70;;;2.40;98.20;;;;;;5061660;28;20410;-69
2022/01/12 04:58:20;;;;;;;93.40;37.92;;;2.40;98.20;;;;;;5067517;28;20036;-69
2022/01/12 05:00:47;;;;;;;100.95;37.90;;;2.40;98.20;;;;;;5066893;28;20060;-69
2022/01/12 05:13:55;;;;;;;92.53;37.08;;;2.50;98.30;;;;;;5055176;28;20066;-69
2022/01/12 05:16:22;;;;;;;103.45;39.00;;;2.50;98.30;;;;;;5063662;28;20039;-69
2022/01/12 05:18:49;;;;;;;95.78;39.70;;;2.50;98.30;;;;;;5067570;28;20031;-66
2022/01/12 05:21:17;;;;;;;97.43;38.50;;;2.50;98.30;;;;;;5064570;28;20063;-66
2022/01/12 05:23:42;;;;;;;94.28;38.30;;;2.50;98.30;;;;;;5065186;28;20043;-67
2022/01/12 05:26:08;;;;;;;95.07;38.03;;;2.50;98.30;;;;;;5065651;28;20028;-66
2022/01/12 05:28:34;;;;;;;102.38;38.63;;;2.50;98.40;;;;;;5067881;28;20047;-67
2022/01/12 05:31:01;;;;;;;91.82;38.45;;;2.50;98.40;;;;;;5068022;28;20025;-66
2022/01/12 05:33:27;;;;;;;116.15;39.05;;;2.50;98.40;;;;;;5069051;28;20428;-66
2022/01/12 05:35:55;;;;;;;100.60;37.25;;;2.50;98.40;;;;;;5067627;28;20104;-66
2022/01/12 05:38:21;;;;;;;101.47;39.53;;;2.50;98.40;;;;;;5066674;28;20118;-66
2022/01/12 05:40:52;;;;;;;110.28;37.97;;;2.50;98.40;;;;;;5061971;28;20024;-66
2022/01/12 05:43:23;;;;;;;;;;;2.60;98.40;;;;;;5059719;28;20017;-66
2022/01/12 05:45:50;;;;;;;98.78;36.53;;;2.60;98.40;;;;;;5066284;28;20119;-66
2022/01/12 05:50:42;;;;;;;101.75;37.97;;;2.50;98.40;;;;;;5065006;28;20372;-66
2022/01/12 05:53:08;;;;;;;95.63;37.15;;;2.60;98.40;;;;;;5068956;28;20097;-66
2022/01/12 05:55:33;;;;;;;117.75;38.85;;;2.50;98.40;;;;;;5066145;28;20033;-66
2022/01/12 05:57:59;;;;;;;105.07;38.08;;;2.60;98.50;;;;;;5064992;28;20095;-66
2022/01/12 06:00:28;;;;;;;103.43;37.90;;;2.60;98.50;;;;;;5060093;28;20067;-66
2022/01/12 06:02:54;;;;;;;103.88;37.97;;;2.60;98.50;;;;;;5069036;28;20043;-66
2022/01/12 06:05:22;;;;;;;106.05;37.88;;;2.60;98.50;;;;;;5059090;28;20035;-66
2022/01/12 06:07:49;;;;;;;110.32;38.45;;;2.60;98.50;;;;;;5067236;28;20032;-66
2022/01/12 06:10:17;;;;;;;108.47;38.38;;;2.60;98.50;;;;;;5061516;28;20048;-66
2022/01/12 06:12:43;;;;;;;111.03;37.10;;;2.60;98.50;;;;;;5055040;28;20499;-66
2022/01/12 06:15:08;;;;;;;119.32;38.92;;;2.60;98.50;;;;;;5067610;28;20108;-66
2022/01/12 06:17:35;;;;;;;117.13;37.00;;;2.60;98.50;;;;;;5069275;28;20348;-66
2022/01/12 06:20:02;;;;;;;99.32;37.30;;;2.60;98.50;;;;;;5071036;28;20523;-66
2022/01/12 06:22:27;;;;;;;134.68;37.92;;;2.60;98.50;;;;;;5071991;28;20020;-66
2022/01/12 06:24:54;;;;;;;136.45;38.33;;;2.60;98.50;;;;;;5062604;28;20025;-66
2022/01/12 06:27:21;;;;;;;129.52;38.60;;;2.60;98.50;;;;;;5069514;28;20381;-66
2022/01/12 06:30:03;;;;;;;117.80;36.38;;;2.60;98.60;;;;;;5065750;28;20025;-66
2022/01/12 06:32:30;;;;;;;146.38;38.55;;;2.60;98.60;;;;;;5070517;28;20095;-66
2022/01/12 06:34:55;;;;;;;114.35;36.92;;;2.60;98.60;;;;;;5069149;28;20036;-66
2022/01/12 06:37:21;;;;;;;150.35;38.47;;;2.60;98.60;;;;;;5071240;28;20082;-66
2022/01/12 06:39:46;;;;;;;152.02;39.67;;;2.70;98.60;;;;;;5065919;28;20043;-66
2022/01/12 06:42:12;;;;;;;158.18;39.85;;;2.60;98.60;;;;;;5068153;28;20059;-66
2022/01/12 06:44:38;;;;;;;165.40;37.45;;;2.70;98.60;;;;;;5067760;28;20447;-66
2022/01/12 06:47:04;;;;;;;181.18;38.30;;;2.70;98.60;;;;;;5071801;28;20033;-66
2022/01/12 06:49:30;;;;;;;165.88;37.97;;;2.70;98.60;;;;;;5067567;28;20032;-66
2022/01/12 06:51:55;;;;;;;166.27;38.35;;;2.70;98.60;;;;;;5070416;28;20096;-66
2022/01/12 06:54:21;;;;;;;198.77;37.83;;;2.70;98.60;;;;;;5068632;28;20119;-66
2022/01/12 06:56:46;;;;;;;175.50;38.42;;;2.70;98.60;;;;;;5069089;28;20767;-66
2022/01/12 06:59:12;;;;;;;252.13;39.60;;;2.70;98.60;;;;;;5067320;28;20028;-66
2022/01/12 07:01:38;;;;;;;216.32;37.85;;;2.70;98.60;;;;;;5069791;28;20113;-66
2022/01/12 07:04:04;;;;;;;230.77;39.17;;;2.70;98.70;;;;;;5070997;28;20466;-66
2022/01/12 07:06:30;;;;;;;258.45;39.90;;;2.70;98.70;;;;;;5063546;28;20048;-66
2022/01/12 07:08:55;;;;;;;237.70;40.35;;;2.70;98.70;;;;;;5066197;28;20032;-66
2022/01/12 07:11:21;;;;;;;256.10;40.70;;;2.70;98.70;;;;;;5058325;28;20021;-66
2022/01/12 07:13:47;;;;;;;301.77;41.40;;;2.70;98.70;;;;;;5056920;28;20171;-66
2022/01/12 07:16:12;;;;;;;170.00;33.72;;;2.70;98.70;;;;;;5053764;28;20192;-66
2022/01/12 07:18:38;;;;;;;243.35;37.97;;;2.80;98.70;;;;;;5064273;28;20044;-66
2022/01/12 07:21:04;;;;;;;280.40;40.47;;;2.70;98.70;;;;;;5064182;28;20028;-66
2022/01/12 07:23:29;;;;;;;293.23;42.40;;;2.70;98.70;;;;;;5069303;28;20031;-66
2022/01/12 07:25:55;;;;;;;265.90;40.90;;;2.80;98.70;;;;;;5070323;28;20379;-66
2022/01/12 07:28:21;;;;;;;242.02;39.80;;;2.80;98.70;;;;;;5069527;28;20031;-66
2022/01/12 07:30:47;;;;;;;293.67;40.95;;;2.80;98.80;;;;;;5070455;28;20090;-66
2022/01/12 07:33:13;;;;;;;293.02;40.80;;;2.80;98.80;;;;;;5069298;28;20520;-66
2022/01/12 07:35:40;;;;;;;286.17;41.35;;;2.80;98.80;;;;;;5061922;28;20063;-66
2022/01/12 07:38:06;;;;;;;378.50;43.28;;;2.80;98.80;;;;;;5070164;28;20031;-66
2022/01/12 07:40:33;;;;;;;342.20;42.13;;;2.80;98.80;;;;;;5057170;28;20024;-66
2022/01/12 07:42:59;;;;;;;408.83;45.10;;;2.80;98.80;;;;;;5067114;28;20070;-66
2022/01/12 07:45:24;;;;;;;333.05;43.25;;;2.80;98.80;;;;;;5068354;28;20133;-66
2022/01/12 07:47:50;;;;;;;388.70;44.40;;;2.90;98.80;;;;;;5062864;28;20039;-66
2022/01/12 07:50:16;;;;;;;348.05;41.28;;;2.80;98.80;;;;;;5065918;28;20031;-66
2022/01/12 07:52:41;;;;;;;262.77;37.88;;;2.90;98.80;;;;;;5062192;28;20588;-66
2022/01/12 07:55:07;;;;;;;352.75;41.88;;;2.90;98.80;;;;;;5065308;28;20064;-66
2022/01/12 07:57:33;;;;;;;295.20;40.40;;;2.90;98.80;;;;;;5064204;28;20039;-66
2022/01/12 07:59:59;;;;;;;278.67;40.70;;;2.90;98.80;;;;;;5066867;28;20033;-66
2022/01/12 08:02:24;;;;;;;338.85;41.10;;;2.90;98.80;;;;;;5064911;28;20043;-66
2022/01/12 08:04:50;;;;;;;280.00;38.80;;;2.90;98.80;;;;;;5066012;28;20044;-66
2022/01/12 08:07:16;;;;;;;272.35;40.63;;;2.90;98.90;;;;;;5066937;28;20104;-66
2022/01/12 08:09:43;;;;;;;366.83;43.08;;;2.90;98.90;;;;;;5066607;28;20033;-66
2022/01/12 08:12:09;;;;;;;361.13;41.83;;;2.90;98.90;;;;;;5067135;28;20023;-66
2022/01/12 08:14:35;;;;;;;293.27;41.25;;;3.00;98.90;;;;;;5067481;28;20398;-66
2022/01/12 08:17:01;;;;;;;229.77;40.88;;;3.00;98.90;;;;;;5069732;28;20032;-66
2022/01/12 08:19:28;;;;;;;283.02;40.60;;;3.00;98.90;;;;;;5068773;28;20016;-66
2022/01/12 08:21:54;;;;;;;351.23;41.92;;;3.10;98.90;;;;;;5064459;28;20024;-66
2022/01/12 08:24:20;;;;;;;277.35;38.85;;;3.10;98.90;;;;;;5069948;28;20116;-66
2022/01/12 08:26:46;;;;;;;322.77;39.70;;;3.00;98.90;;;;;;5066555;28;20108;-66
2022/01/12 08:29:14;;;;;;;320.70;40.50;;;3.10;98.90;;;;;;5068769;28;20033;-66
2022/01/12 08:31:42;;;;;;;256.25;36.92;;;3.10;98.90;;;;;;5055898;28;20112;-66
2022/01/12 08:34:08;;;;;;;312.98;38.13;;;3.10;98.90;;;;;;5068398;28;20024;-66
2022/01/12 08:36:33;;;;;;;317.02;38.88;;;3.10;98.90;;;;;;5064352;28;20059;-66
2022/01/12 08:39:01;;;;;;;359.83;38.95;;;3.10;98.90;;;;;;5061558;28;20059;-66
2022/01/12 08:41:27;;;;;;;277.85;36.92;;;3.10;98.90;;;;;;5064827;28;20017;-66
2022/01/12 08:43:52;;;;;;;313.50;37.15;;;3.20;98.90;;;;;;5056884;28;20522;-66
2022/01/12 08:46:18;;;;;;;282.33;37.35;;;3.20;98.90;;;;;;5055001;28;20036;-64
2022/01/12 08:48:43;;;;;;;355.58;39.08;;;3.20;98.90;;;;;;5051480;28;20029;-66
2022/01/12 08:51:09;;;;;;;324.77;38.90;;;3.20;98.90;;;;;;5065210;28;20488;-66
2022/01/12 08:53:34;;;;;;;269.83;35.70;;;3.20;98.90;;;;;;5065305;28;20037;-66
2022/01/12 08:56:00;;;;;;;327.05;38.35;;;3.20;98.90;;;;;;5057641;28;20074;-66
2022/01/12 08:58:26;;;;;;;293.67;36.70;;;3.30;98.90;;;;;;5057545;28;20028;-66
2022/01/12 09:00:51;;;;;;;253.77;34.22;;;3.30;98.90;;;;;;5065728;28;20049;-66
2022/01/12 09:03:17;;;;;;;225.38;32.97;;;3.40;98.90;;;;;;5069619;28;20103;-66
2022/01/12 09:05:42;;;;;;;258.15;33.47;;;3.30;98.90;;;;;;5060143;28;20090;-66
2022/01/12 09:08:08;;;;;;;256.85;34.75;;;3.30;98.90;;;;;;5065932;28;20040;-67
2022/01/12 09:10:34;;;;;;;293.58;34.83;;;3.40;98.90;;;;;;5063939;28;20043;-67
2022/01/12 09:13:00;;;;;;;262.13;32.17;;;3.40;98.90;;;;;;5067570;28;20025;-66
2022/01/12 09:15:26;;;;;;;166.18;29.52;;;3.50;98.90;;;;;;5059743;28;20353;-67
2022/01/12 09:17:54;;;;;;;170.60;30.55;;;3.50;98.90;;;;;;5066114;28;20087;-67
2022/01/12 09:20:21;;;;;;;223.73;30.77;;;3.50;98.90;;;;;;5053537;28;20017;-67
2022/01/12 09:22:46;;;;;;;250.27;32.58;;;3.50;98.90;;;;;;5064275;28;20113;-66
2022/01/12 09:25:12;;;;;;;168.57;28.17;;;3.50;98.90;;;;;;5062700;28;20066;-66
2022/01/12 09:27:39;;;;;;;223.07;30.02;;;3.40;98.90;;;;;;5063243;28;20021;-66
2022/01/12 09:30:08;;;;;;;197.98;29.85;;;3.40;98.90;;;;;;5053603;28;20170;-67
2022/01/12 09:32:34;;;;;;;187.95;30.90;;;3.50;98.90;;;;;;5060109;28;20036;-66
2022/01/12 09:35:00;;;;;;;208.20;30.38;;;3.50;98.90;;;;;;5058658;28;20054;-66
2022/01/12 09:37:26;;;;;;;155.43;26.25;;;3.50;98.90;;;;;;5063784;28;20035;-67
2022/01/12 09:39:51;;;;;;;102.35;23.15;;;3.50;98.90;;;;;;5060013;28;20021;-66
2022/01/12 09:42:17;;;;;;;157.20;28.15;;;3.50;98.90;;;;;;5054899;28;20338;-67
2022/01/12 09:44:45;;;;;;;151.65;26.23;;;3.50;98.90;;;;;;5061421;28;20040;-66
2022/01/12 09:47:11;;;;;;;134.93;26.52;;;3.40;98.90;;;;;;5060830;28;20025;-67
2022/01/12 09:49:37;;;;;;;153.35;27.02;;;3.50;98.90;;;;;;5060315;28;20037;-66
2022/01/12 09:52:03;;;;;;;164.52;25.85;;;3.50;98.90;;;;;;5064204;28;20031;-66
2022/01/12 09:54:30;;;;;;;165.05;25.33;;;3.50;98.90;;;;;;5071991;28;20028;-66
2022/01/12 09:56:59;;;;;;;155.20;26.63;;;3.50;98.90;;;;;;5069752;28;20039;-66
2022/01/12 09:59:26;;;;;;;201.50;26.20;;;3.50;98.90;;;;;;5066188;28;20051;-66
2022/01/12 10:01:52;;;;;;;221.93;26.33;;;3.50;98.90;;;;;;5071311;28;20122;-66
2022/01/12 10:04:26;;;;;;;169.43;26.30;;;3.50;98.90;;;;;;5064240;28;20030;-66
2022/01/12 10:07:03;;;;;;;199.75;26.02;;;3.50;98.90;;;;;;5058808;28;20039;-66
2022/01/12 10:09:37;;;;;;;157.82;25.23;;;3.50;98.90;;;;;;5067393;28;20372;-66
2022/01/12 10:12:05;;;;;;;216.02;27.38;;;3.50;98.90;;;;;;5055185;28;20111;-67
2022/01/12 10:14:52;;;;;;;226.57;25.77;;;3.60;98.90;;;;;;5065689;28;20040;-67
2022/01/12 10:17:19;;;;;;;176.25;25.05;;;3.50;98.90;;;;;;5064765;28;20379;-67
2022/01/12 10:19:45;;;;;;;185.13;25.52;;;3.60;98.90;;;;;;5072144;28;20036;-66
2022/01/12 10:22:17;;;;;;;176.50;26.17;;;3.50;98.90;;;;;;5063717;28;20025;-66
2022/01/12 10:24:45;;;;;;;154.05;26.08;;;3.50;98.90;;;;;;5064665;28;20067;-66
2022/01/12 10:27:17;;;;;;;149.65;25.85;;;3.60;98.90;;;;;;5063274;28;20035;-66
2022/01/12 10:29:44;;;;;;;137.80;25.05;;;3.60;98.90;;;;;;5066315;28;20020;-66
2022/01/12 10:32:13;;;;;;;75.72;20.58;;;3.60;98.90;;;;;;5065201;28;20021;-66
2022/01/12 10:34:42;;;;;;;81.53;22.70;;;3.40;98.80;;;;;;5069377;28;20472;-66
2022/01/12 10:37:10;;;;;;;93.20;20.75;;;3.50;98.80;;;;;;5066782;28;20456;-67
2022/01/12 10:39:39;;;;;;;108.22;22.75;;;3.50;98.80;;;;;;5063012;28;20029;-66
2022/01/12 10:42:08;;;;;;;103.10;23.02;;;3.50;98.90;;;;;;5052392;28;20013;-67
2022/01/12 10:44:37;;;;;;;99.03;20.50;;;3.50;98.90;;;;;;5072403;28;20044;-67
2022/01/12 10:47:10;;;;;;;138.45;22.20;;;3.50;98.90;;;;;;5063772;28;20415;-68
2022/01/12 10:49:37;;;;;;;92.28;22.60;;;3.50;98.90;;;;;;5062615;28;20035;-68
2022/01/12 10:52:08;;;;;;;102.68;22.58;;;3.50;98.90;;;;;;5069740;28;20025;-67
2022/01/12 10:54:50;;;;;;;;;;;3.50;98.90;;;;;;5070445;28;20534;-69
2022/01/12 10:57:25;;;;;;;58.38;19.70;;;3.60;98.90;;;;;;5061692;28;19965;-66
2022/01/12 11:00:19;;;;;;;61.40;20.00;;;3.50;98.80;;;;;;5070288;28;20364;-67
2022/01/12 11:02:49;;;;;;;71.13;20.42;;;3.60;98.80;;;;;;5054115;28;20080;-69
2022/01/12 11:05:16;;;;;;;47.72;17.33;;;3.60;98.90;;;;;;5065563;28;20032;-67
2022/01/12 11:07:42;;;;;;;53.10;19.27;;;3.60;98.80;;;;;;5064023;28;20098;-67
2022/01/12 11:10:10;;;;;;;48.08;18.00;;;3.60;98.80;;;;;;5063446;28;20021;-67
2022/01/12 11:12:37;;;;;;;44.75;17.58;;;3.70;98.80;;;;;;5058454;28;20027;-67
2022/01/12 11:15:11;;;;;;;45.40;15.98;;;3.80;98.70;;;;;;5064349;28;20352;-67
2022/01/12 11:17:38;;;;;;;46.28;16.17;;;3.70;98.60;;;;;;5059307;28;20078;-67
2022/01/12 11:20:09;;;;;;;42.42;15.75;;;3.80;98.60;;;;;;5056845;28;20024;-67
2022/01/12 11:22:46;;;;;;;;;;;3.70;98.50;;;;;;5055512;28;20045;-67
2022/01/12 11:25:30;;;;;;;39.28;14.63;;;3.80;98.50;;;;;;5067820;28;19930;-67
2022/01/12 11:28:21;;;;;;;46.75;15.93;;;3.80;98.60;;;;;;5062870;28;20021;-67
2022/01/12 11:30:50;;;;;;;39.63;14.73;;;4.00;98.60;;;;;;5063916;28;20429;-67
2022/01/12 11:33:17;;;;;;;36.97;14.43;;;4.10;98.50;;;;;;5062954;28;20028;-67
2022/01/12 11:35:46;;;;;;;41.88;15.80;;;4.30;98.50;;;;;;5057175;28;20021;-67
2022/01/12 11:38:22;;;;;;;37.67;15.00;;;4.40;98.40;;;;;;5067488;28;21225;-67
2022/01/12 11:40:50;;;;;;;40.67;14.95;;;4.40;98.20;;;;;;5060884;28;20121;-67
2022/01/12 11:43:21;;;;;;;41.97;14.27;;;4.60;98.30;;;;;;5062556;28;20372;-67
2022/01/12 11:46:01;;;;;;;36.95;13.43;;;4.70;98.10;;;;;;5059271;28;20025;-67
2022/01/12 11:48:31;;;;;;;38.67;14.27;;;4.80;97.70;;;;;;5059046;28;20021;-67
2022/01/12 11:50:56;;;;;;;37.05;12.93;;;4.80;97.60;;;;;;5055453;28;20025;-67
2022/01/12 11:53:22;;;;;;;39.67;13.07;;;4.60;97.00;;;;;;5066152;28;20425;-67
2022/01/12 11:55:47;;;;;;;31.30;13.55;;;4.70;97.50;;;;;;5064261;28;20123;-67
2022/01/12 11:58:18;;;;;;;35.92;12.68;;;4.70;97.30;;;;;;5065591;28;20364;-67
2022/01/12 12:00:43;;;;;;;28.70;12.07;;;4.60;96.60;;;;;;5063105;28;20045;-67
2022/01/12 12:03:19;;;;;;;24.77;12.05;;;4.50;96.80;;;;;;5066428;28;20391;-67
2022/01/12 12:05:45;;;;;;;27.90;13.07;;;4.60;97.00;;;;;;5062597;28;20027;-67
2022/01/12 12:08:22;;;;;;;31.13;12.95;;;4.60;97.00;;;;;;5070451;28;20027;-67
2022/01/12 12:10:52;;;;;;;28.92;12.43;;;4.70;97.00;;;;;;5056843;28;20018;-67
2022/01/12 12:13:21;;;;;;;31.13;12.77;;;4.60;96.50;;;;;;5070440;28;20028;-67
2022/01/12 12:15:47;;;;;;;38.13;13.90;;;4.60;96.50;;;;;;5059858;28;20029;-67
2022/01/12 12:18:16;;;;;;;34.33;14.07;;;4.60;96.60;;;;;;5069750;28;20471;-66
2022/01/12 12:20:41;;;;;;;34.80;13.57;;;4.60;96.50;;;;;;5069924;28;20085;-67
2022/01/12 12:23:07;;;;;;;35.13;13.20;;;4.60;96.30;;;;;;5053540;28;20033;-67
2022/01/12 12:25:34;;;;;;;31.45;14.68;;;4.60;96.40;;;;;;5050946;28;20025;-66
2022/01/12 12:28:13;;;;;;;37.47;13.82;;;4.60;96.30;;;;;;5049956;28;20029;-66
2022/01/12 12:30:39;;;;;;;33.25;13.60;;;4.60;96.30;;;;;;5059381;28;20032;-67
2022/01/12 12:33:11;;;;;;;39.05;15.23;;;4.60;96.30;;;;;;5067529;28;20523;-67
2022/01/12 12:35:37;;;;;;;28.15;12.38;;;4.60;96.30;;;;;;5061339;28;20364;-67
2022/01/12 12:38:12;;;;;;;36.05;14.27;;;4.50;96.30;;;;;;5059798;28;20024;-67
2022/01/12 12:40:41;;;;;;;34.63;15.35;;;4.50;96.40;;;;;;5069699;28;20025;-67
2022/01/12 12:43:13;;;;;;;30.17;13.80;;;4.60;96.50;;;;;;5070150;28;20044;-66
2022/01/12 12:45:44;;;;;;;36.72;14.10;;;4.50;96.50;;;;;;5070082;28;20025;-67
2022/01/12 12:48:21;;;;;;;40.80;13.80;;;4.60;96.60;;;;;;5070618;28;20141;-67
2022/01/12 12:50:52;;;;;;;35.60;13.90;;;4.60;96.60;;;;;;5060189;28;20043;-66
2022/01/12 12:53:18;;;;;;;33.63;14.02;;;4.60;96.50;;;;;;5070136;28;20028;-67
2022/01/12 12:55:45;;;;;;;30.02;13.90;;;4.60;96.50;;;;;;5052406;28;20028;-67
2022/01/12 12:58:13;;;;;;;36.08;15.15;;;4.70;96.40;;;;;;5050857;28;20049;-67
2022/01/12 13:00:39;;;;;;;34.95;15.30;;;4.80;96.30;;;;;;5056287;28;20409;-67
2022/01/12 13:03:06;;;;;;;39.30;14.32;;;4.80;96.10;;;;;;5055732;28;20028;-66
2022/01/12 13:05:41;;;;;;;28.02;13.20;;;4.80;96.20;;;;;;5052299;28;20032;-67
2022/01/12 13:08:07;;;;;;;32.13;14.40;;;4.80;96.10;;;;;;5067010;28;20021;-67
2022/01/12 13:10:33;;;;;;;34.35;15.10;;;4.80;96.20;;;;;;5059905;28;20021;-66
2022/01/12 13:13:08;;;;;;;35.08;13.82;;;4.80;96.30;;;;;;5069573;28;20047;-67
2022/01/12 13:15:41;;;;;;;35.50;13.90;;;4.70;96.20;;;;;;5069678;28;20537;-67
2022/01/12 13:18:22;;;;;;;35.95;13.60;;;4.70;96.20;;;;;;5057212;28;20021;-67
2022/01/12 13:21:07;;;;;;;;;;;4.80;96.10;;;;;;5055001;28;20020;-67
2022/01/12 13:23:42;;;;;;;37.45;13.68;;;4.80;96.00;;;;;;5061003;28;19973;-67
2022/01/12 13:26:12;;;;;;;32.63;13.30;;;4.90;96.00;;;;;;5058303;28;20029;-67
2022/01/12 13:28:40;;;;;;;35.45;13.77;;;4.90;95.90;;;;;;5049501;28;20021;-67
2022/01/12 13:31:09;;;;;;;29.08;13.40;;;5.10;95.90;;;;;;5051575;28;20051;-67
2022/01/12 13:33:39;;;;;;;25.73;12.32;;;5.10;95.70;;;;;;5056169;28;20475;-67
2022/01/12 13:36:16;;;;;;;31.25;12.70;;;5.00;95.20;;;;;;5058982;28;20031;-67
2022/01/12 13:38:46;;;;;;;30.50;12.48;;;4.90;95.20;;;;;;5067292;28;20024;-67
2022/01/12 13:41:15;;;;;;;27.67;11.88;;;4.90;95.30;;;;;;5058083;28;20085;-67
2022/01/12 13:43:43;;;;;;;22.27;10.05;;;4.80;95.40;;;;;;5059458;28;20432;-67
2022/01/12 13:46:14;;;;;;;22.42;10.48;;;4.70;95.10;;;;;;5065417;28;20077;-67
2022/01/12 13:48:53;;;;;;;26.15;11.10;;;4.70;95.30;;;;;;5061083;28;20016;-66
2022/01/12 13:51:26;;;;;;;28.80;11.32;;;4.60;95.40;;;;;;5063821;28;20177;-67
2022/01/12 13:54:02;;;;;;;30.17;11.73;;;4.60;95.60;;;;;;5070092;28;20024;-67
2022/01/12 13:56:41;;;;;;;26.83;11.68;;;4.60;95.70;;;;;;5062461;28;20059;-67